createdAt,value
2018-04-16T00:00:59.681Z,0.00
2018-04-16T00:01:59.650Z,0.00
2018-04-16T00:02:59.624Z,0.00
2018-04-16T00:03:59.582Z,0.00
2018-04-16T00:04:59.548Z,0.00
2018-04-16T00:05:59.485Z,0.00
2018-04-16T00:06:59.483Z,0.00
2018-04-16T00:07:59.426Z,0.00
2018-04-16T00:08:59.388Z,0.00
2018-04-16T00:09:59.408Z,0.00
2018-04-16T00:10:59.324Z,0.00
2018-04-16T00:11:59.296Z,0.00
2018-04-16T00:12:59.235Z,0.00
2018-04-16T00:13:59.920Z,0.00
2018-04-16T00:14:59.186Z,0.00
2018-04-16T00:15:59.155Z,0.00
2018-04-16T00:16:59.099Z,0.00
2018-04-16T00:17:59.073Z,0.00
2018-04-16T00:18:59.055Z,0.00
2018-04-16T00:19:58.997Z,0.00
2018-04-16T00:20:58.984Z,0.00
2018-04-16T00:21:58.935Z,0.00
2018-04-16T00:22:58.895Z,0.00
2018-04-16T00:23:58.854Z,0.00
2018-04-16T00:24:58.845Z,0.00
2018-04-16T00:25:58.792Z,0.00
2018-04-16T00:26:58.728Z,0.00
2018-04-16T00:27:58.700Z,0.00
2018-04-16T00:28:58.723Z,0.00
2018-04-16T00:29:58.668Z,0.00
2018-04-16T00:30:58.620Z,0.00
2018-04-16T00:31:58.569Z,0.00
2018-04-16T00:32:59.420Z,0.00
2018-04-16T00:33:58.468Z,0.00
2018-04-16T00:34:58.578Z,0.00
2018-04-16T00:35:58.398Z,0.00
2018-04-16T00:36:58.399Z,0.00
2018-04-16T00:37:58.341Z,0.00
2018-04-16T00:38:58.287Z,0.00
2018-04-16T00:39:58.287Z,0.00
2018-04-16T00:40:58.259Z,0.00
2018-04-16T00:41:58.230Z,0.00
2018-04-16T00:42:58.158Z,0.00
2018-04-16T00:43:58.164Z,0.00
2018-04-16T00:44:58.083Z,0.00
2018-04-16T00:45:58.033Z,0.00
2018-04-16T00:46:58.036Z,0.00
2018-04-16T00:47:57.977Z,0.00
2018-04-16T00:48:58.424Z,0.00
2018-04-16T00:49:57.921Z,0.00
2018-04-16T00:50:57.852Z,0.00
2018-04-16T00:51:57.837Z,0.00
2018-04-16T00:52:57.792Z,0.00
2018-04-16T00:53:57.773Z,0.00
2018-04-16T00:54:57.722Z,0.00
2018-04-16T00:55:57.689Z,0.00
2018-04-16T00:56:57.646Z,0.00
2018-04-16T00:57:57.616Z,0.00
2018-04-16T00:58:57.601Z,0.00
2018-04-16T00:59:57.559Z,0.00
2018-04-16T01:00:57.519Z,0.00
2018-04-16T01:01:57.490Z,0.00
2018-04-16T01:02:57.432Z,0.00
2018-04-16T01:03:57.420Z,0.00
2018-04-16T01:04:57.355Z,0.00
2018-04-16T01:05:57.343Z,0.00
2018-04-16T01:06:57.291Z,0.00
2018-04-16T01:07:57.249Z,0.00
2018-04-16T01:08:57.211Z,0.00
2018-04-16T01:09:57.164Z,0.00
2018-04-16T01:10:57.924Z,0.00
2018-04-16T01:11:57.111Z,0.00
2018-04-16T01:12:57.071Z,0.00
2018-04-16T01:13:57.036Z,0.00
2018-04-16T01:14:57.002Z,0.00
2018-04-16T01:15:56.994Z,0.00
2018-04-16T01:16:56.909Z,0.00
2018-04-16T01:17:56.881Z,0.00
2018-04-16T01:18:56.861Z,0.00
2018-04-16T01:19:56.820Z,0.00
2018-04-16T01:20:56.778Z,0.00
2018-04-16T01:21:56.778Z,0.00
2018-04-16T01:22:56.707Z,0.00
2018-04-16T01:23:56.670Z,0.00
2018-04-16T01:24:57.428Z,0.00
2018-04-16T01:25:56.594Z,0.00
2018-04-16T01:26:56.560Z,0.00
2018-04-16T01:27:56.545Z,0.00
2018-04-16T01:28:56.467Z,0.00
2018-04-16T01:29:56.475Z,0.00
2018-04-16T01:30:56.407Z,0.00
2018-04-16T01:31:56.393Z,0.00
2018-04-16T01:32:56.339Z,0.00
2018-04-16T01:33:56.333Z,0.00
2018-04-16T01:34:56.281Z,0.00
2018-04-16T01:35:56.223Z,0.00
2018-04-16T01:36:56.196Z,0.00
2018-04-16T01:37:56.175Z,0.00
2018-04-16T01:38:56.127Z,0.00
2018-04-16T01:39:56.089Z,0.00
2018-04-16T01:40:56.084Z,0.00
2018-04-16T01:41:56.013Z,0.00
2018-04-16T01:42:55.961Z,0.00
2018-04-16T01:43:55.935Z,0.00
2018-04-16T01:44:55.914Z,0.00
2018-04-16T01:45:55.854Z,0.00
2018-04-16T01:46:55.832Z,0.00
2018-04-16T01:47:55.802Z,0.00
2018-04-16T01:48:55.755Z,0.00
2018-04-16T01:49:55.734Z,0.00
2018-04-16T01:50:55.709Z,0.00
2018-04-16T01:51:55.656Z,0.00
2018-04-16T01:52:55.616Z,0.00
2018-04-16T01:53:55.575Z,0.00
2018-04-16T01:54:55.532Z,0.00
2018-04-16T01:55:55.508Z,0.00
2018-04-16T01:56:55.501Z,0.00
2018-04-16T01:57:55.455Z,0.00
2018-04-16T01:58:55.431Z,0.00
2018-04-16T01:59:55.372Z,0.00
2018-04-16T02:00:55.327Z,0.00
2018-04-16T02:01:55.282Z,0.00
2018-04-16T02:02:55.253Z,0.00
2018-04-16T02:03:55.224Z,0.00
2018-04-16T02:04:55.192Z,0.00
2018-04-16T02:05:55.155Z,0.00
2018-04-16T02:06:55.135Z,0.00
2018-04-16T02:07:55.073Z,0.00
2018-04-16T02:08:55.038Z,0.00
2018-04-16T02:09:55.025Z,0.00
2018-04-16T02:10:54.957Z,0.00
2018-04-16T02:11:54.915Z,0.00
2018-04-16T02:12:54.905Z,0.00
2018-04-16T02:13:54.844Z,0.00
2018-04-16T02:14:54.828Z,0.00
2018-04-16T02:15:54.786Z,0.00
2018-04-16T02:16:54.773Z,0.00
2018-04-16T02:17:54.715Z,0.00
2018-04-16T02:18:54.650Z,0.00
2018-04-16T02:19:54.635Z,0.00
2018-04-16T02:20:54.695Z,0.00
2018-04-16T02:21:54.571Z,0.00
2018-04-16T02:22:54.537Z,0.00
2018-04-16T02:23:54.497Z,0.00
2018-04-16T02:24:54.441Z,0.00
2018-04-16T02:25:54.424Z,0.00
2018-04-16T02:26:54.396Z,0.00
2018-04-16T02:27:54.344Z,0.00
2018-04-16T02:28:54.338Z,0.00
2018-04-16T02:29:54.317Z,0.00
2018-04-16T02:30:54.246Z,0.00
2018-04-16T02:31:54.183Z,0.00
2018-04-16T02:32:54.175Z,0.00
2018-04-16T02:33:54.158Z,0.00
2018-04-16T02:34:54.143Z,0.00
2018-04-16T02:35:54.054Z,0.00
2018-04-16T02:36:54.059Z,0.00
2018-04-16T02:37:55.534Z,0.00
2018-04-16T02:38:53.963Z,0.00
2018-04-16T02:39:53.900Z,0.00
2018-04-16T02:40:53.869Z,0.00
2018-04-16T02:41:53.823Z,0.00
2018-04-16T02:42:53.815Z,0.00
2018-04-16T02:43:53.764Z,0.00
2018-04-16T02:44:53.768Z,0.00
2018-04-16T02:45:53.708Z,0.00
2018-04-16T02:46:53.685Z,0.00
2018-04-16T02:47:53.639Z,0.00
2018-04-16T02:48:53.570Z,0.00
2018-04-16T02:49:53.546Z,0.00
2018-04-16T02:50:53.524Z,0.00
2018-04-16T02:51:53.471Z,0.00
2018-04-16T02:52:53.444Z,0.00
2018-04-16T02:53:53.436Z,0.00
2018-04-16T02:54:53.363Z,0.00
2018-04-16T02:55:53.328Z,0.00
2018-04-16T02:56:53.286Z,0.00
2018-04-16T02:57:53.261Z,0.00
2018-04-16T02:58:53.233Z,0.00
2018-04-16T02:59:53.198Z,0.00
2018-04-16T03:00:53.143Z,0.00
2018-04-16T03:01:53.115Z,0.00
2018-04-16T03:02:53.089Z,0.00
2018-04-16T03:03:53.021Z,0.00
2018-04-16T03:04:53.005Z,0.00
2018-04-16T03:05:52.986Z,0.00
2018-04-16T03:06:52.933Z,0.00
2018-04-16T03:07:52.887Z,0.00
2018-04-16T03:08:52.860Z,0.00
2018-04-16T03:09:52.818Z,0.00
2018-04-16T03:10:52.823Z,0.00
2018-04-16T03:11:52.904Z,0.00
2018-04-16T03:12:52.717Z,0.00
2018-04-16T03:13:52.733Z,0.00
2018-04-16T03:14:52.643Z,0.00
2018-04-16T03:15:52.610Z,0.00
2018-04-16T03:16:52.587Z,0.00
2018-04-16T03:17:52.551Z,0.00
2018-04-16T03:18:52.519Z,0.00
2018-04-16T03:19:52.488Z,0.00
2018-04-16T03:20:52.436Z,0.00
2018-04-16T03:21:52.399Z,0.00
2018-04-16T03:22:52.377Z,0.00
2018-04-16T03:23:52.346Z,0.00
2018-04-16T03:24:52.289Z,0.00
2018-04-16T03:25:52.237Z,0.00
2018-04-16T03:26:52.245Z,0.00
2018-04-16T03:27:52.179Z,0.00
2018-04-16T03:28:52.159Z,0.00
2018-04-16T03:29:52.120Z,0.00
2018-04-16T03:30:52.066Z,0.00
2018-04-16T03:31:52.027Z,0.00
2018-04-16T03:32:51.979Z,0.00
2018-04-16T03:33:51.974Z,0.00
2018-04-16T03:34:51.903Z,0.00
2018-04-16T03:35:51.909Z,0.00
2018-04-16T03:36:51.861Z,0.00
2018-04-16T03:37:51.790Z,0.00
2018-04-16T03:38:51.780Z,0.00
2018-04-16T03:39:51.744Z,0.00
2018-04-16T03:40:51.689Z,0.00
2018-04-16T03:41:51.650Z,0.00
2018-04-16T03:42:51.616Z,0.00
2018-04-16T03:43:51.604Z,0.00
2018-04-16T03:44:51.575Z,0.00
2018-04-16T03:45:51.521Z,0.00
2018-04-16T03:46:51.488Z,0.00
2018-04-16T03:47:51.615Z,0.00
2018-04-16T03:48:51.447Z,0.00
2018-04-16T03:49:51.373Z,0.00
2018-04-16T03:50:51.351Z,0.00
2018-04-16T03:51:51.333Z,0.00
2018-04-16T03:52:51.272Z,0.00
2018-04-16T03:53:51.212Z,0.00
2018-04-16T03:54:51.181Z,0.00
2018-04-16T03:55:51.181Z,0.00
2018-04-16T03:56:51.124Z,4.00
2018-04-16T03:57:51.095Z,4.00
2018-04-16T03:58:51.039Z,4.00
2018-04-16T03:59:50.994Z,4.00
2018-04-16T04:00:50.971Z,4.00
2018-04-16T04:01:50.954Z,8.00
2018-04-16T04:02:50.909Z,4.00
2018-04-16T04:03:50.862Z,8.00
2018-04-16T04:04:50.815Z,12.00
2018-04-16T04:05:50.778Z,12.00
2018-04-16T04:06:50.741Z,12.00
2018-04-16T04:07:50.714Z,12.00
2018-04-16T04:08:50.694Z,16.00
2018-04-16T04:09:50.671Z,16.00
2018-04-16T04:10:50.613Z,24.00
2018-04-16T04:11:50.585Z,24.00
2018-04-16T04:12:50.523Z,28.00
2018-04-16T04:13:50.495Z,28.00
2018-04-16T04:14:50.466Z,32.00
2018-04-16T04:15:50.416Z,40.00
2018-04-16T04:16:50.389Z,40.00
2018-04-16T04:17:50.357Z,44.00
2018-04-16T04:18:50.323Z,48.00
2018-04-16T04:19:50.305Z,52.00
2018-04-16T04:20:50.244Z,56.00
2018-04-16T04:21:50.210Z,60.00
2018-04-16T04:22:50.167Z,64.00
2018-04-16T04:23:50.137Z,76.00
2018-04-16T04:24:50.138Z,80.00
2018-04-16T04:25:50.180Z,88.00
2018-04-16T04:26:50.008Z,104.00
2018-04-16T04:27:50.139Z,116.00
2018-04-16T04:28:49.969Z,128.00
2018-04-16T04:29:49.943Z,136.00
2018-04-16T04:30:49.932Z,148.00
2018-04-16T04:31:49.845Z,156.00
2018-04-16T04:32:49.829Z,160.00
2018-04-16T04:33:49.795Z,168.00
2018-04-16T04:34:49.762Z,180.00
2018-04-16T04:35:49.696Z,196.00
2018-04-16T04:36:49.697Z,208.00
2018-04-16T04:37:49.655Z,224.00
2018-04-16T04:38:49.601Z,236.00
2018-04-16T04:39:49.547Z,256.00
2018-04-16T04:40:49.524Z,280.00
2018-04-16T04:41:49.483Z,292.00
2018-04-16T04:42:49.453Z,304.00
2018-04-16T04:43:49.407Z,312.00
2018-04-16T04:44:49.393Z,328.00
2018-04-16T04:45:49.351Z,344.00
2018-04-16T04:46:49.304Z,360.00
2018-04-16T04:47:49.266Z,384.00
2018-04-16T04:48:49.233Z,400.00
2018-04-16T04:49:49.211Z,416.00
2018-04-16T04:50:49.142Z,440.00
2018-04-16T04:51:49.160Z,464.00
2018-04-16T04:52:49.083Z,480.00
2018-04-16T04:53:49.039Z,496.00
2018-04-16T04:54:49.028Z,512.00
2018-04-16T04:55:48.954Z,528.00
2018-04-16T04:56:48.927Z,560.00
2018-04-16T04:57:48.876Z,584.00
2018-04-16T04:58:48.963Z,604.00
2018-04-16T04:59:48.828Z,628.00
2018-04-16T05:00:48.793Z,676.00
2018-04-16T05:01:48.748Z,736.00
2018-04-16T05:02:48.788Z,792.00
2018-04-16T05:03:48.713Z,844.00
2018-04-16T05:04:48.672Z,888.00
2018-04-16T05:05:48.607Z,940.00
2018-04-16T05:06:48.577Z,988.00
2018-04-16T05:07:48.519Z,1012.00
2018-04-16T05:08:48.511Z,1036.00
2018-04-16T05:09:48.509Z,1080.00
2018-04-16T05:10:48.449Z,1124.00
2018-04-16T05:11:48.435Z,1148.00
2018-04-16T05:12:48.365Z,1160.00
2018-04-16T05:13:48.325Z,1168.00
2018-04-16T05:14:48.286Z,1192.00
2018-04-16T05:15:48.265Z,1240.00
2018-04-16T05:16:48.270Z,1304.00
2018-04-16T05:17:48.246Z,1372.00
2018-04-16T05:18:48.189Z,1440.00
2018-04-16T05:19:48.109Z,1516.00
2018-04-16T05:20:48.077Z,1612.00
2018-04-16T05:21:48.012Z,1720.00
2018-04-16T05:22:47.980Z,1828.00
2018-04-16T05:23:47.953Z,1916.00
2018-04-16T05:24:47.924Z,1988.00
2018-04-16T05:25:47.899Z,2040.00
2018-04-16T05:26:47.867Z,2132.00
2018-04-16T05:27:47.811Z,2256.00
2018-04-16T05:28:47.776Z,2352.00
2018-04-16T05:29:47.748Z,2444.00
2018-04-16T05:30:47.715Z,2524.00
2018-04-16T05:31:47.704Z,2608.00
2018-04-16T05:32:47.648Z,2716.00
2018-04-16T05:33:47.615Z,2764.00
2018-04-16T05:34:47.595Z,2772.00
2018-04-16T05:35:47.527Z,2808.00
2018-04-16T05:36:47.472Z,2880.00
2018-04-16T05:37:47.470Z,3028.00
2018-04-16T05:38:47.415Z,3136.00
2018-04-16T05:39:47.413Z,3140.00
2018-04-16T05:40:47.328Z,3040.00
2018-04-16T05:41:47.309Z,2872.00
2018-04-16T05:42:47.337Z,2760.00
2018-04-16T05:43:47.257Z,2732.00
2018-04-16T05:44:47.239Z,2748.00
2018-04-16T05:45:47.150Z,2656.00
2018-04-16T05:46:47.122Z,2672.00
2018-04-16T05:47:47.123Z,2876.00
2018-04-16T05:48:47.054Z,3084.00
2018-04-16T05:49:47.018Z,3188.00
2018-04-16T05:50:46.976Z,3184.00
2018-04-16T05:51:46.985Z,3080.00
2018-04-16T05:52:46.907Z,2988.00
2018-04-16T05:53:46.890Z,2872.00
2018-04-16T05:54:46.838Z,2652.00
2018-04-16T05:55:46.808Z,2428.00
2018-04-16T05:56:46.824Z,2280.00
2018-04-16T05:57:46.743Z,2244.00
2018-04-16T05:58:46.691Z,2300.00
2018-04-16T05:59:46.653Z,2416.00
2018-04-16T06:00:46.651Z,2588.00
2018-04-16T06:01:46.576Z,2788.00
2018-04-16T06:02:46.539Z,2980.00
2018-04-16T06:03:46.584Z,3156.00
2018-04-16T06:04:46.500Z,3280.00
2018-04-16T06:05:46.470Z,3332.00
2018-04-16T06:06:46.442Z,3352.00
2018-04-16T06:07:46.380Z,3368.00
2018-04-16T06:08:46.322Z,3408.00
2018-04-16T06:09:46.314Z,3492.00
2018-04-16T06:10:46.263Z,3608.00
2018-04-16T06:11:46.241Z,3752.00
2018-04-16T06:12:46.187Z,3884.00
2018-04-16T06:13:46.172Z,3912.00
2018-04-16T06:14:46.149Z,3816.00
2018-04-16T06:15:46.090Z,3660.00
2018-04-16T06:16:46.057Z,3564.00
2018-04-16T06:17:46.018Z,3536.00
2018-04-16T06:18:46.002Z,3568.00
2018-04-16T06:19:45.946Z,3676.00
2018-04-16T06:20:45.953Z,3868.00
2018-04-16T06:21:45.873Z,4144.00
2018-04-16T06:22:45.883Z,4416.00
2018-04-16T06:23:45.784Z,4704.00
2018-04-16T06:24:45.756Z,4852.00
2018-04-16T06:25:45.724Z,5168.00
2018-04-16T06:26:45.681Z,5316.00
2018-04-16T06:27:45.653Z,5220.00
2018-04-16T06:28:45.632Z,4788.00
2018-04-16T06:29:45.569Z,4508.00
2018-04-16T06:30:45.569Z,4780.00
2018-04-16T06:31:45.513Z,5336.00
2018-04-16T06:32:45.485Z,5872.00
2018-04-16T06:33:45.457Z,6216.00
2018-04-16T06:34:45.405Z,6448.00
2018-04-16T06:35:45.351Z,6688.00
2018-04-16T06:36:45.343Z,6656.00
2018-04-16T06:37:45.286Z,6452.00
2018-04-16T06:38:45.307Z,6352.00
2018-04-16T06:39:45.247Z,6356.00
2018-04-16T06:40:45.211Z,6188.00
2018-04-16T06:41:45.200Z,6224.00
2018-04-16T06:42:45.174Z,6300.00
2018-04-16T06:43:45.071Z,6188.00
2018-04-16T06:44:45.058Z,6080.00
2018-04-16T06:45:45.016Z,6460.00
2018-04-16T06:46:44.994Z,6928.00
2018-04-16T06:47:44.951Z,7052.00
2018-04-16T06:48:44.895Z,7080.00
2018-04-16T06:49:44.876Z,7260.00
2018-04-16T06:50:44.826Z,7392.00
2018-04-16T06:51:44.812Z,7652.00
2018-04-16T06:52:44.789Z,7968.00
2018-04-16T06:53:44.816Z,8148.00
2018-04-16T06:54:44.743Z,8012.00
2018-04-16T06:55:44.693Z,8228.00
2018-04-16T06:56:44.648Z,8116.00
2018-04-16T06:57:44.599Z,8228.00
2018-04-16T06:58:44.570Z,8420.00
2018-04-16T06:59:44.565Z,8988.00
2018-04-16T07:00:44.512Z,9744.00
2018-04-16T07:01:44.463Z,10276.00
2018-04-16T07:02:44.404Z,10628.00
2018-04-16T07:03:44.377Z,11340.00
2018-04-16T07:04:44.339Z,12088.00
2018-04-16T07:05:44.325Z,12888.00
2018-04-16T07:06:44.276Z,13592.00
2018-04-16T07:07:44.283Z,14168.00
2018-04-16T07:08:44.224Z,14892.00
2018-04-16T07:09:44.167Z,15356.00
2018-04-16T07:10:44.149Z,15688.00
2018-04-16T07:11:44.101Z,15880.00
2018-04-16T07:12:44.078Z,16080.00
2018-04-16T07:13:44.058Z,16092.00
2018-04-16T07:14:44.008Z,16248.00
2018-04-16T07:15:44.017Z,16400.00
2018-04-16T07:16:43.931Z,16368.00
2018-04-16T07:17:43.902Z,16456.00
2018-04-16T07:18:43.870Z,16352.00
2018-04-16T07:19:43.813Z,16232.00
2018-04-16T07:20:43.820Z,16028.00
2018-04-16T07:21:43.771Z,15688.00
2018-04-16T07:22:43.738Z,15528.00
2018-04-16T07:23:43.682Z,15776.00
2018-04-16T07:24:43.682Z,15948.00
2018-04-16T07:25:43.619Z,15784.00
2018-04-16T07:26:43.569Z,15440.00
2018-04-16T07:27:43.592Z,15900.00
2018-04-16T07:28:43.530Z,16680.00
2018-04-16T07:29:43.477Z,17664.00
2018-04-16T07:30:43.503Z,18464.00
2018-04-16T07:31:43.455Z,19488.00
2018-04-16T07:32:43.378Z,19680.00
2018-04-16T07:33:43.341Z,19456.00
2018-04-16T07:34:43.347Z,20128.00
2018-04-16T07:35:43.302Z,20832.00
2018-04-16T07:36:43.232Z,20544.00
2018-04-16T07:37:43.236Z,19680.00
2018-04-16T07:38:43.172Z,19296.00
2018-04-16T07:39:43.166Z,19392.00
2018-04-16T07:40:44.614Z,19808.00
2018-04-16T07:41:43.107Z,19872.00
2018-04-16T07:42:43.065Z,20032.00
2018-04-16T07:43:43.027Z,20512.00
2018-04-16T07:44:42.996Z,21568.00
2018-04-16T07:45:42.949Z,20768.00
2018-04-16T07:46:42.968Z,19552.00
2018-04-16T07:47:42.872Z,17400.00
2018-04-16T07:48:42.846Z,15260.00
2018-04-16T07:49:42.853Z,14092.00
2018-04-16T07:50:42.779Z,13596.00
2018-04-16T07:51:42.739Z,14272.00
2018-04-16T07:52:42.703Z,14388.00
2018-04-16T07:53:42.679Z,14424.00
2018-04-16T07:54:42.789Z,13568.00
2018-04-16T07:55:42.614Z,11560.00
2018-04-16T07:56:42.609Z,10188.00
2018-04-16T07:57:42.565Z,9516.00
2018-04-16T07:58:42.518Z,9196.00
2018-04-16T07:59:42.499Z,8744.00
2018-04-16T08:00:42.461Z,9244.00
2018-04-16T08:01:42.416Z,9880.00
2018-04-16T08:02:42.400Z,10744.00
2018-04-16T08:03:42.355Z,12024.00
2018-04-16T08:04:42.304Z,13696.00
2018-04-16T08:05:42.291Z,14592.00
2018-04-16T08:06:42.324Z,14160.00
2018-04-16T08:07:42.203Z,12076.00
2018-04-16T08:08:42.187Z,11396.00
2018-04-16T08:09:42.151Z,13916.00
2018-04-16T08:10:42.112Z,15504.00
2018-04-16T08:11:42.068Z,16156.00
2018-04-16T08:12:42.090Z,17696.00
2018-04-16T08:13:42.029Z,21824.00
2018-04-16T08:14:41.987Z,24768.00
2018-04-16T08:15:42.011Z,26336.00
2018-04-16T08:16:41.913Z,26464.00
2018-04-16T08:17:41.911Z,26080.00
2018-04-16T08:18:41.849Z,26432.00
2018-04-16T08:19:41.799Z,23424.00
2018-04-16T08:20:41.780Z,21984.00
2018-04-16T08:21:41.765Z,21952.00
2018-04-16T08:22:41.708Z,21568.00
2018-04-16T08:23:41.683Z,21536.00
2018-04-16T08:24:41.637Z,22240.00
2018-04-16T08:25:41.660Z,21408.00
2018-04-16T08:26:41.579Z,19520.00
2018-04-16T08:27:41.536Z,18976.00
2018-04-16T08:28:41.536Z,17068.00
2018-04-16T08:29:41.486Z,15848.00
2018-04-16T08:30:41.475Z,17600.00
2018-04-16T08:31:41.418Z,20288.00
2018-04-16T08:32:41.390Z,23008.00
2018-04-16T08:33:41.365Z,24576.00
2018-04-16T08:34:41.309Z,23392.00
2018-04-16T08:35:41.290Z,22720.00
2018-04-16T08:36:41.256Z,22784.00
2018-04-16T08:37:41.276Z,23072.00
2018-04-16T08:38:41.194Z,21952.00
2018-04-16T08:39:41.232Z,19840.00
2018-04-16T08:40:41.120Z,17888.00
2018-04-16T08:41:41.110Z,17696.00
2018-04-16T08:42:41.076Z,16992.00
2018-04-16T08:43:41.027Z,15684.00
2018-04-16T08:44:40.996Z,15584.00
2018-04-16T08:45:40.975Z,16244.00
2018-04-16T08:46:40.950Z,16512.00
2018-04-16T08:47:40.872Z,16108.00
2018-04-16T08:48:40.872Z,15008.00
2018-04-16T08:49:40.845Z,13548.00
2018-04-16T08:50:40.798Z,13188.00
2018-04-16T08:51:40.758Z,14056.00
2018-04-16T08:52:40.722Z,16584.00
2018-04-16T08:53:40.716Z,20256.00
2018-04-16T08:54:40.674Z,21216.00
2018-04-16T08:55:40.627Z,20000.00
2018-04-16T08:56:40.636Z,17824.00
2018-04-16T08:57:40.551Z,16768.00
2018-04-16T08:58:40.524Z,16176.00
2018-04-16T08:59:40.542Z,16016.00
2018-04-16T09:00:40.486Z,16016.00
2018-04-16T09:01:40.429Z,16132.00
2018-04-16T09:02:40.385Z,17272.00
2018-04-16T09:03:40.360Z,18720.00
2018-04-16T09:04:40.336Z,19648.00
2018-04-16T09:05:40.307Z,20736.00
2018-04-16T09:06:40.275Z,21760.00
2018-04-16T09:07:40.230Z,23488.00
2018-04-16T09:08:40.194Z,24832.00
2018-04-16T09:09:40.182Z,26080.00
2018-04-16T09:10:40.128Z,27520.00
2018-04-16T09:11:40.110Z,28352.00
2018-04-16T09:12:40.062Z,27968.00
2018-04-16T09:13:40.026Z,27136.00
2018-04-16T09:14:40.012Z,26784.00
2018-04-16T09:15:39.989Z,26592.00
2018-04-16T09:16:39.929Z,26240.00
2018-04-16T09:17:39.890Z,25984.00
2018-04-16T09:18:39.887Z,25792.00
2018-04-16T09:19:39.842Z,25120.00
2018-04-16T09:20:39.808Z,23744.00
2018-04-16T09:21:39.761Z,23296.00
2018-04-16T09:22:39.767Z,23456.00
2018-04-16T09:23:39.715Z,23520.00
2018-04-16T09:24:39.670Z,24192.00
2018-04-16T09:25:39.664Z,24768.00
2018-04-16T09:26:39.604Z,24512.00
2018-04-16T09:27:39.644Z,24000.00
2018-04-16T09:28:39.581Z,23136.00
2018-04-16T09:29:39.519Z,22080.00
2018-04-16T09:30:39.486Z,20768.00
2018-04-16T09:31:39.461Z,19584.00
2018-04-16T09:32:39.441Z,18432.00
2018-04-16T09:33:39.391Z,18880.00
2018-04-16T09:34:39.376Z,19584.00
2018-04-16T09:35:39.351Z,19744.00
2018-04-16T09:36:39.316Z,19936.00
2018-04-16T09:37:39.284Z,19392.00
2018-04-16T09:38:39.227Z,16896.00
2018-04-16T09:39:39.197Z,14384.00
2018-04-16T09:40:39.178Z,12984.00
2018-04-16T09:41:39.130Z,12520.00
2018-04-16T09:42:39.096Z,12268.00
2018-04-16T09:43:39.080Z,11812.00
2018-04-16T09:44:39.073Z,11232.00
2018-04-16T09:45:39.041Z,10424.00
2018-04-16T09:46:38.955Z,9892.00
2018-04-16T09:47:38.999Z,10012.00
2018-04-16T09:48:38.911Z,10744.00
2018-04-16T09:49:38.957Z,11940.00
2018-04-16T09:50:38.843Z,13824.00
2018-04-16T09:51:38.817Z,16184.00
2018-04-16T09:52:38.920Z,18400.00
2018-04-16T09:53:38.767Z,19968.00
2018-04-16T09:54:38.702Z,21024.00
2018-04-16T09:55:38.700Z,21216.00
2018-04-16T09:56:38.652Z,21536.00
2018-04-16T09:57:38.634Z,22176.00
2018-04-16T09:58:38.568Z,22816.00
2018-04-16T09:59:38.571Z,22912.00
2018-04-16T10:00:38.534Z,22368.00
2018-04-16T10:01:38.499Z,21184.00
2018-04-16T10:02:38.443Z,19936.00
2018-04-16T10:03:38.423Z,19072.00
2018-04-16T10:04:38.408Z,18592.00
2018-04-16T10:05:38.355Z,18848.00
2018-04-16T10:06:38.378Z,20256.00
2018-04-16T10:07:38.309Z,21728.00
2018-04-16T10:08:38.264Z,22720.00
2018-04-16T10:09:38.226Z,24256.00
2018-04-16T10:10:38.208Z,25632.00
2018-04-16T10:11:38.168Z,26656.00
2018-04-16T10:12:38.109Z,27360.00
2018-04-16T10:13:38.098Z,27840.00
2018-04-16T10:14:38.069Z,28192.00
2018-04-16T10:15:38.109Z,28288.00
2018-04-16T10:16:37.981Z,28640.00
2018-04-16T10:17:37.962Z,28992.00
2018-04-16T10:18:37.932Z,29760.00
2018-04-16T10:19:37.913Z,31008.00
2018-04-16T10:20:37.863Z,32288.00
2018-04-16T10:21:37.860Z,33696.00
2018-04-16T10:22:37.826Z,35072.00
2018-04-16T10:23:37.774Z,35872.00
2018-04-16T10:24:37.740Z,36992.00
2018-04-16T10:25:37.708Z,37632.00
2018-04-16T10:26:37.677Z,38496.00
2018-04-16T10:27:37.633Z,38688.00
2018-04-16T10:28:37.657Z,37568.00
2018-04-16T10:29:37.610Z,35552.00
2018-04-16T10:30:37.562Z,34080.00
2018-04-16T10:31:37.504Z,33696.00
2018-04-16T10:32:37.517Z,33984.00
2018-04-16T10:33:37.486Z,35072.00
2018-04-16T10:34:37.436Z,36032.00
2018-04-16T10:35:37.384Z,36960.00
2018-04-16T10:36:37.375Z,37056.00
2018-04-16T10:37:37.319Z,36032.00
2018-04-16T10:38:37.283Z,35488.00
2018-04-16T10:39:37.243Z,35872.00
2018-04-16T10:40:37.232Z,35776.00
2018-04-16T10:41:37.182Z,36224.00
2018-04-16T10:42:37.200Z,36928.00
2018-04-16T10:43:37.143Z,36864.00
2018-04-16T10:44:37.123Z,36352.00
2018-04-16T10:45:37.076Z,35680.00
2018-04-16T10:46:37.041Z,35392.00
2018-04-16T10:47:37.016Z,35456.00
2018-04-16T10:48:36.985Z,36960.00
2018-04-16T10:49:36.953Z,39168.00
2018-04-16T10:50:36.917Z,41664.00
2018-04-16T10:51:36.883Z,44000.00
2018-04-16T10:52:36.877Z,43648.00
2018-04-16T10:53:36.856Z,43456.00
2018-04-16T10:54:36.790Z,42624.00
2018-04-16T10:55:36.790Z,40704.00
2018-04-16T10:56:36.751Z,38144.00
2018-04-16T10:57:36.755Z,35776.00
2018-04-16T10:58:36.662Z,34528.00
2018-04-16T10:59:36.636Z,34560.00
2018-04-16T11:00:36.632Z,34816.00
2018-04-16T11:01:36.585Z,34656.00
2018-04-16T11:02:36.563Z,33760.00
2018-04-16T11:03:36.521Z,33408.00
2018-04-16T11:04:36.499Z,33856.00
2018-04-16T11:05:36.466Z,35296.00
2018-04-16T11:06:36.471Z,34496.00
2018-04-16T11:07:36.434Z,31456.00
2018-04-16T11:08:36.365Z,26912.00
2018-04-16T11:09:36.338Z,22112.00
2018-04-16T11:10:36.293Z,18592.00
2018-04-16T11:11:36.285Z,16652.00
2018-04-16T11:12:36.247Z,16012.00
2018-04-16T11:13:36.223Z,15696.00
2018-04-16T11:14:36.197Z,15544.00
2018-04-16T11:15:36.160Z,15388.00
2018-04-16T11:16:36.156Z,15712.00
2018-04-16T11:17:36.117Z,16524.00
2018-04-16T11:18:36.093Z,17728.00
2018-04-16T11:19:36.034Z,19008.00
2018-04-16T11:20:36.007Z,20256.00
2018-04-16T11:21:35.972Z,21344.00
2018-04-16T11:22:35.958Z,22176.00
2018-04-16T11:23:35.918Z,22688.00
2018-04-16T11:24:35.915Z,23040.00
2018-04-16T11:25:35.833Z,23520.00
2018-04-16T11:26:35.800Z,24192.00
2018-04-16T11:27:35.790Z,24416.00
2018-04-16T11:28:35.762Z,23840.00
2018-04-16T11:29:35.706Z,22400.00
2018-04-16T11:30:35.696Z,20512.00
2018-04-16T11:31:35.672Z,18528.00
2018-04-16T11:32:35.633Z,16656.00
2018-04-16T11:33:35.636Z,15276.00
2018-04-16T11:34:35.574Z,14208.00
2018-04-16T11:35:35.547Z,13484.00
2018-04-16T11:36:35.529Z,13160.00
2018-04-16T11:37:35.489Z,13088.00
2018-04-16T11:38:35.458Z,13248.00
2018-04-16T11:39:35.403Z,13652.00
2018-04-16T11:40:35.391Z,14416.00
2018-04-16T11:41:35.349Z,15412.00
2018-04-16T11:42:35.341Z,16200.00
2018-04-16T11:43:35.307Z,16760.00
2018-04-16T11:44:35.269Z,17156.00
2018-04-16T11:45:35.330Z,17520.00
2018-04-16T11:46:35.183Z,18112.00
2018-04-16T11:47:35.178Z,18432.00
2018-04-16T11:48:35.166Z,18816.00
2018-04-16T11:49:35.105Z,19072.00
2018-04-16T11:50:35.087Z,19392.00
2018-04-16T11:51:35.048Z,19776.00
2018-04-16T11:52:35.029Z,19936.00
2018-04-16T11:53:35.629Z,19712.00
2018-04-16T11:54:34.923Z,19328.00
2018-04-16T11:55:34.914Z,19168.00
2018-04-16T11:56:34.901Z,19104.00
2018-04-16T11:57:34.943Z,19040.00
2018-04-16T11:58:34.821Z,18816.00
2018-04-16T11:59:34.777Z,18400.00
2018-04-16T12:00:34.761Z,18016.00
2018-04-16T12:01:34.728Z,17512.00
2018-04-16T12:02:34.702Z,17184.00
2018-04-16T12:03:34.682Z,16776.00
2018-04-16T12:04:34.627Z,16524.00
2018-04-16T12:05:34.626Z,16432.00
2018-04-16T12:06:34.558Z,16520.00
2018-04-16T12:07:34.575Z,16600.00
2018-04-16T12:08:34.543Z,16584.00
2018-04-16T12:09:34.512Z,16516.00
2018-04-16T12:10:34.486Z,16540.00
2018-04-16T12:11:34.400Z,16768.00
2018-04-16T12:12:34.360Z,17056.00
2018-04-16T12:13:34.342Z,17420.00
2018-04-16T12:14:34.310Z,18144.00
2018-04-16T12:15:34.267Z,18688.00
2018-04-16T12:16:34.288Z,19136.00
2018-04-16T12:17:34.231Z,19456.00
2018-04-16T12:18:34.189Z,19648.00
2018-04-16T12:19:34.177Z,19744.00
2018-04-16T12:20:34.127Z,19712.00
2018-04-16T12:21:34.632Z,19328.00